sensor_id;sensor_type;location;lat;lon;timestamp;P1;durP1;ratioP1;P2;durP2;ratioP2
18580;SDS011;9420;50.876;7.012;2023-07-22T00:00:26;7.57;;;5.17;;
18580;SDS011;9420;50.876;7.012;2023-07-22T00:02:56;7.80;;;5.00;;
18580;SDS011;9420;50.876;7.012;2023-07-22T00:05:23;8.07;;;5.33;;
18580;SDS011;9420;50.876;7.012;2023-07-22T00:07:50;10.60;;;5.53;;
18580;SDS011;9420;50.876;7.012;2023-07-22T00:10:17;8.13;;;6.23;;
18580;SDS011;9420;50.876;7.012;2023-07-22T00:12:44;6.90;;;5.20;;
18580;SDS011;9420;50.876;7.012;2023-07-22T00:15:11;6.97;;;5.50;;
18580;SDS011;9420;50.876;7.012;2023-07-22T00:17:38;8.43;;;5.40;;
18580;SDS011;9420;50.876;7.012;2023-07-22T00:20:07;7.87;;;5.63;;
18580;SDS011;9420;50.876;7.012;2023-07-22T00:22:36;10.60;;;5.90;;
18580;SDS011;9420;50.876;7.012;2023-07-22T00:25:05;9.73;;;5.97;;
18580;SDS011;9420;50.876;7.012;2023-07-22T00:27:33;8.77;;;5.97;;
18580;SDS011;9420;50.876;7.012;2023-07-22T00:29:59;8.27;;;5.90;;
18580;SDS011;9420;50.876;7.012;2023-07-22T00:32:26;9.63;;;6.00;;
18580;SDS011;9420;50.876;7.012;2023-07-22T00:34:52;7.80;;;6.00;;
18580;SDS011;9420;50.876;7.012;2023-07-22T00:37:21;8.33;;;6.23;;
18580;SDS011;9420;50.876;7.012;2023-07-22T00:39:47;9.70;;;6.23;;
18580;SDS011;9420;50.876;7.012;2023-07-22T00:42:14;8.00;;;6.07;;
18580;SDS011;9420;50.876;7.012;2023-07-22T00:44:40;8.90;;;6.17;;
18580;SDS011;9420;50.876;7.012;2023-07-22T00:47:07;8.50;;;6.43;;
18580;SDS011;9420;50.876;7.012;2023-07-22T00:49:37;12.73;;;6.10;;
18580;SDS011;9420;50.876;7.012;2023-07-22T00:52:05;8.67;;;5.90;;
18580;SDS011;9420;50.876;7.012;2023-07-22T00:54:34;9.43;;;6.33;;
18580;SDS011;9420;50.876;7.012;2023-07-22T00:57:01;8.90;;;6.20;;
18580;SDS011;9420;50.876;7.012;2023-07-22T00:59:28;14.63;;;6.10;;
18580;SDS011;9420;50.876;7.012;2023-07-22T01:01:55;10.23;;;6.47;;
18580;SDS011;9420;50.876;7.012;2023-07-22T01:04:21;10.00;;;5.83;;
18580;SDS011;9420;50.876;7.012;2023-07-22T01:06:50;9.57;;;6.30;;
18580;SDS011;9420;50.876;7.012;2023-07-22T01:09:18;8.37;;;5.80;;
18580;SDS011;9420;50.876;7.012;2023-07-22T01:11:46;8.67;;;6.63;;
18580;SDS011;9420;50.876;7.012;2023-07-22T01:14:13;11.30;;;6.60;;
18580;SDS011;9420;50.876;7.012;2023-07-22T01:16:40;9.93;;;5.90;;
18580;SDS011;9420;50.876;7.012;2023-07-22T01:19:07;10.30;;;7.07;;
18580;SDS011;9420;50.876;7.012;2023-07-22T01:21:34;10.63;;;7.30;;
18580;SDS011;9420;50.876;7.012;2023-07-22T01:24:07;12.30;;;7.30;;
18580;SDS011;9420;50.876;7.012;2023-07-22T01:26:33;8.70;;;6.27;;
18580;SDS011;9420;50.876;7.012;2023-07-22T01:29:03;9.43;;;6.60;;
18580;SDS011;9420;50.876;7.012;2023-07-22T01:31:31;12.20;;;7.43;;
18580;SDS011;9420;50.876;7.012;2023-07-22T01:33:59;11.07;;;8.33;;
18580;SDS011;9420;50.876;7.012;2023-07-22T01:36:26;9.57;;;7.33;;
18580;SDS011;9420;50.876;7.012;2023-07-22T01:38:53;10.87;;;7.43;;
18580;SDS011;9420;50.876;7.012;2023-07-22T01:41:21;11.50;;;8.23;;
18580;SDS011;9420;50.876;7.012;2023-07-22T01:43:48;9.73;;;7.30;;
18580;SDS011;9420;50.876;7.012;2023-07-22T01:46:14;10.57;;;7.60;;
18580;SDS011;9420;50.876;7.012;2023-07-22T01:48:41;11.67;;;8.37;;
18580;SDS011;9420;50.876;7.012;2023-07-22T01:51:08;9.07;;;7.10;;
18580;SDS011;9420;50.876;7.012;2023-07-22T01:53:35;13.90;;;7.63;;
18580;SDS011;9420;50.876;7.012;2023-07-22T01:56:02;11.73;;;7.10;;
18580;SDS011;9420;50.876;7.012;2023-07-22T01:58:31;12.03;;;8.07;;
18580;SDS011;9420;50.876;7.012;2023-07-22T02:00:58;10.67;;;7.73;;
18580;SDS011;9420;50.876;7.012;2023-07-22T02:03:25;11.90;;;7.50;;
18580;SDS011;9420;50.876;7.012;2023-07-22T02:05:52;12.30;;;7.80;;
18580;SDS011;9420;50.876;7.012;2023-07-22T02:08:19;12.80;;;7.77;;
18580;SDS011;9420;50.876;7.012;2023-07-22T02:10:45;9.97;;;7.27;;
18580;SDS011;9420;50.876;7.012;2023-07-22T02:13:12;11.43;;;7.40;;
18580;SDS011;9420;50.876;7.012;2023-07-22T02:15:42;10.47;;;7.70;;
18580;SDS011;9420;50.876;7.012;2023-07-22T02:18:08;11.90;;;8.43;;
18580;SDS011;9420;50.876;7.012;2023-07-22T02:20:35;10.00;;;7.43;;
18580;SDS011;9420;50.876;7.012;2023-07-22T02:23:01;8.97;;;6.60;;
18580;SDS011;9420;50.876;7.012;2023-07-22T02:25:28;11.63;;;7.77;;
18580;SDS011;9420;50.876;7.012;2023-07-22T02:27:55;11.80;;;7.30;;
18580;SDS011;9420;50.876;7.012;2023-07-22T02:30:22;11.33;;;7.33;;
18580;SDS011;9420;50.876;7.012;2023-07-22T02:32:50;16.20;;;7.80;;
18580;SDS011;9420;50.876;7.012;2023-07-22T02:35:17;11.63;;;7.13;;
18580;SDS011;9420;50.876;7.012;2023-07-22T02:37:44;10.57;;;7.13;;
18580;SDS011;9420;50.876;7.012;2023-07-22T02:40:10;10.87;;;7.50;;
18580;SDS011;9420;50.876;7.012;2023-07-22T02:42:38;11.13;;;6.93;;
18580;SDS011;9420;50.876;7.012;2023-07-22T02:45:05;16.17;;;6.53;;
18580;SDS011;9420;50.876;7.012;2023-07-22T02:47:33;10.17;;;7.10;;
18580;SDS011;9420;50.876;7.012;2023-07-22T02:50:05;8.67;;;7.00;;
18580;SDS011;9420;50.876;7.012;2023-07-22T02:52:32;13.40;;;7.67;;
18580;SDS011;9420;50.876;7.012;2023-07-22T02:55:06;12.33;;;7.57;;
18580;SDS011;9420;50.876;7.012;2023-07-22T02:57:36;10.13;;;7.37;;
18580;SDS011;9420;50.876;7.012;2023-07-22T03:00:03;13.00;;;7.77;;
18580;SDS011;9420;50.876;7.012;2023-07-22T03:02:33;12.80;;;6.60;;
18580;SDS011;9420;50.876;7.012;2023-07-22T03:05:00;10.60;;;7.27;;
18580;SDS011;9420;50.876;7.012;2023-07-22T03:07:29;9.70;;;6.83;;
18580;SDS011;9420;50.876;7.012;2023-07-22T03:09:55;12.70;;;7.17;;
18580;SDS011;9420;50.876;7.012;2023-07-22T03:12:22;12.47;;;7.23;;
18580;SDS011;9420;50.876;7.012;2023-07-22T03:14:49;10.17;;;6.90;;
18580;SDS011;9420;50.876;7.012;2023-07-22T03:17:17;12.40;;;7.50;;
18580;SDS011;9420;50.876;7.012;2023-07-22T03:19:44;10.93;;;7.27;;
18580;SDS011;9420;50.876;7.012;2023-07-22T03:22:11;9.93;;;6.47;;
18580;SDS011;9420;50.876;7.012;2023-07-22T03:24:42;11.40;;;7.00;;
18580;SDS011;9420;50.876;7.012;2023-07-22T03:27:09;8.70;;;6.53;;
18580;SDS011;9420;50.876;7.012;2023-07-22T03:29:36;10.13;;;7.50;;
18580;SDS011;9420;50.876;7.012;2023-07-22T03:32:03;9.23;;;7.03;;
18580;SDS011;9420;50.876;7.012;2023-07-22T03:34:30;11.57;;;6.97;;
18580;SDS011;9420;50.876;7.012;2023-07-22T03:36:57;9.67;;;6.37;;
18580;SDS011;9420;50.876;7.012;2023-07-22T03:39:24;9.37;;;6.67;;
18580;SDS011;9420;50.876;7.012;2023-07-22T03:41:52;15.00;;;7.43;;
18580;SDS011;9420;50.876;7.012;2023-07-22T03:44:19;9.83;;;6.43;;
18580;SDS011;9420;50.876;7.012;2023-07-22T03:46:45;7.63;;;6.13;;
18580;SDS011;9420;50.876;7.012;2023-07-22T03:49:39;10.93;;;7.13;;
18580;SDS011;9420;50.876;7.012;2023-07-22T03:52:06;9.23;;;6.83;;
18580;SDS011;9420;50.876;7.012;2023-07-22T03:54:34;9.20;;;7.03;;
18580;SDS011;9420;50.876;7.012;2023-07-22T03:57:02;10.10;;;7.23;;
18580;SDS011;9420;50.876;7.012;2023-07-22T03:59:29;9.47;;;6.37;;
18580;SDS011;9420;50.876;7.012;2023-07-22T04:01:56;9.83;;;7.30;;
18580;SDS011;9420;50.876;7.012;2023-07-22T04:04:23;8.83;;;7.30;;
18580;SDS011;9420;50.876;7.012;2023-07-22T04:06:50;11.87;;;7.53;;
18580;SDS011;9420;50.876;7.012;2023-07-22T04:09:16;12.27;;;7.40;;
18580;SDS011;9420;50.876;7.012;2023-07-22T04:11:43;9.00;;;6.90;;
18580;SDS011;9420;50.876;7.012;2023-07-22T04:14:11;8.97;;;7.17;;
18580;SDS011;9420;50.876;7.012;2023-07-22T04:16:38;9.30;;;6.80;;
18580;SDS011;9420;50.876;7.012;2023-07-22T04:19:04;14.57;;;7.33;;
18580;SDS011;9420;50.876;7.012;2023-07-22T04:21:31;9.90;;;6.50;;
18580;SDS011;9420;50.876;7.012;2023-07-22T04:23:57;9.73;;;6.93;;
18580;SDS011;9420;50.876;7.012;2023-07-22T04:26:24;11.70;;;7.13;;
18580;SDS011;9420;50.876;7.012;2023-07-22T04:28:51;8.53;;;6.27;;
18580;SDS011;9420;50.876;7.012;2023-07-22T04:31:18;12.47;;;8.17;;
18580;SDS011;9420;50.876;7.012;2023-07-22T04:33:45;10.13;;;7.10;;
18580;SDS011;9420;50.876;7.012;2023-07-22T04:36:12;11.00;;;6.73;;
18580;SDS011;9420;50.876;7.012;2023-07-22T04:38:38;11.57;;;7.70;;
18580;SDS011;9420;50.876;7.012;2023-07-22T04:41:05;13.50;;;6.67;;
18580;SDS011;9420;50.876;7.012;2023-07-22T04:43:31;10.53;;;6.87;;
18580;SDS011;9420;50.876;7.012;2023-07-22T04:45:58;10.77;;;7.77;;
18580;SDS011;9420;50.876;7.012;2023-07-22T04:48:26;11.70;;;8.10;;
18580;SDS011;9420;50.876;7.012;2023-07-22T04:50:52;12.17;;;8.63;;
18580;SDS011;9420;50.876;7.012;2023-07-22T04:53:21;13.70;;;6.97;;
18580;SDS011;9420;50.876;7.012;2023-07-22T04:55:48;10.87;;;7.20;;
18580;SDS011;9420;50.876;7.012;2023-07-22T04:58:15;14.27;;;7.13;;
18580;SDS011;9420;50.876;7.012;2023-07-22T05:00:42;9.90;;;7.10;;
18580;SDS011;9420;50.876;7.012;2023-07-22T05:03:08;10.73;;;7.70;;
18580;SDS011;9420;50.876;7.012;2023-07-22T05:05:41;10.73;;;7.53;;
18580;SDS011;9420;50.876;7.012;2023-07-22T05:08:11;12.23;;;7.40;;
18580;SDS011;9420;50.876;7.012;2023-07-22T05:10:38;10.67;;;7.00;;
18580;SDS011;9420;50.876;7.012;2023-07-22T05:13:15;11.93;;;7.57;;
18580;SDS011;9420;50.876;7.012;2023-07-22T05:15:43;10.70;;;7.47;;
18580;SDS011;9420;50.876;7.012;2023-07-22T05:18:09;9.87;;;7.00;;
18580;SDS011;9420;50.876;7.012;2023-07-22T05:20:37;9.37;;;6.97;;
18580;SDS011;9420;50.876;7.012;2023-07-22T05:23:05;8.57;;;6.67;;
18580;SDS011;9420;50.876;7.012;2023-07-22T05:25:34;9.57;;;7.40;;
18580;SDS011;9420;50.876;7.012;2023-07-22T05:28:01;12.97;;;7.97;;
18580;SDS011;9420;50.876;7.012;2023-07-22T05:30:27;8.93;;;7.57;;
18580;SDS011;9420;50.876;7.012;2023-07-22T05:32:54;8.60;;;7.57;;
18580;SDS011;9420;50.876;7.012;2023-07-22T05:35:21;10.87;;;7.73;;
18580;SDS011;9420;50.876;7.012;2023-07-22T05:37:47;10.97;;;7.47;;
18580;SDS011;9420;50.876;7.012;2023-07-22T05:40:15;8.07;;;7.27;;
18580;SDS011;9420;50.876;7.012;2023-07-22T05:42:42;10.20;;;7.07;;
18580;SDS011;9420;50.876;7.012;2023-07-22T05:45:09;11.07;;;6.87;;
18580;SDS011;9420;50.876;7.012;2023-07-22T05:47:38;8.83;;;6.63;;
18580;SDS011;9420;50.876;7.012;2023-07-22T05:50:05;10.13;;;6.87;;
18580;SDS011;9420;50.876;7.012;2023-07-22T05:52:33;8.97;;;6.67;;
18580;SDS011;9420;50.876;7.012;2023-07-22T05:54:59;11.47;;;6.93;;
18580;SDS011;9420;50.876;7.012;2023-07-22T05:57:27;10.60;;;7.03;;
18580;SDS011;9420;50.876;7.012;2023-07-22T05:59:54;12.10;;;7.27;;
18580;SDS011;9420;50.876;7.012;2023-07-22T06:02:20;9.87;;;6.70;;
18580;SDS011;9420;50.876;7.012;2023-07-22T06:04:47;12.40;;;7.33;;
18580;SDS011;9420;50.876;7.012;2023-07-22T06:07:14;7.17;;;6.03;;
18580;SDS011;9420;50.876;7.012;2023-07-22T06:09:40;9.40;;;6.23;;
18580;SDS011;9420;50.876;7.012;2023-07-22T06:12:07;11.90;;;7.13;;
18580;SDS011;9420;50.876;7.012;2023-07-22T06:14:35;9.40;;;7.10;;
18580;SDS011;9420;50.876;7.012;2023-07-22T06:17:02;11.30;;;7.10;;
18580;SDS011;9420;50.876;7.012;2023-07-22T06:19:29;10.43;;;6.80;;
18580;SDS011;9420;50.876;7.012;2023-07-22T06:21:55;6.83;;;5.97;;
18580;SDS011;9420;50.876;7.012;2023-07-22T06:24:22;10.73;;;6.70;;
18580;SDS011;9420;50.876;7.012;2023-07-22T06:26:48;11.00;;;6.53;;
18580;SDS011;9420;50.876;7.012;2023-07-22T06:29:15;8.50;;;6.60;;
18580;SDS011;9420;50.876;7.012;2023-07-22T06:31:43;11.63;;;6.33;;
18580;SDS011;9420;50.876;7.012;2023-07-22T06:34:10;7.77;;;6.17;;
18580;SDS011;9420;50.876;7.012;2023-07-22T06:36:36;9.77;;;7.43;;
18580;SDS011;9420;50.876;7.012;2023-07-22T06:39:03;8.83;;;7.13;;
18580;SDS011;9420;50.876;7.012;2023-07-22T06:41:29;11.60;;;7.67;;
18580;SDS011;9420;50.876;7.012;2023-07-22T06:43:56;10.67;;;6.07;;
18580;SDS011;9420;50.876;7.012;2023-07-22T06:46:23;11.63;;;6.77;;
18580;SDS011;9420;50.876;7.012;2023-07-22T06:48:50;10.50;;;6.53;;
18580;SDS011;9420;50.876;7.012;2023-07-22T06:51:17;11.80;;;6.43;;
18580;SDS011;9420;50.876;7.012;2023-07-22T06:53:44;9.23;;;6.83;;
18580;SDS011;9420;50.876;7.012;2023-07-22T06:56:11;12.47;;;6.80;;
18580;SDS011;9420;50.876;7.012;2023-07-22T06:58:37;8.80;;;6.33;;
18580;SDS011;9420;50.876;7.012;2023-07-22T07:01:04;8.17;;;5.70;;
18580;SDS011;9420;50.876;7.012;2023-07-22T07:03:30;7.87;;;6.80;;
18580;SDS011;9420;50.876;7.012;2023-07-22T07:05:58;9.13;;;6.57;;
18580;SDS011;9420;50.876;7.012;2023-07-22T07:08:25;7.60;;;5.53;;
18580;SDS011;9420;50.876;7.012;2023-07-22T07:10:52;8.20;;;5.37;;
18580;SDS011;9420;50.876;7.012;2023-07-22T07:13:18;8.87;;;6.20;;
18580;SDS011;9420;50.876;7.012;2023-07-22T07:15:46;8.97;;;5.97;;
18580;SDS011;9420;50.876;7.012;2023-07-22T07:18:14;6.53;;;4.90;;
18580;SDS011;9420;50.876;7.012;2023-07-22T07:20:42;7.30;;;5.73;;
18580;SDS011;9420;50.876;7.012;2023-07-22T07:23:11;8.27;;;6.13;;
18580;SDS011;9420;50.876;7.012;2023-07-22T07:25:41;7.63;;;5.43;;
18580;SDS011;9420;50.876;7.012;2023-07-22T07:28:08;10.63;;;6.37;;
18580;SDS011;9420;50.876;7.012;2023-07-22T07:30:34;6.20;;;5.03;;
18580;SDS011;9420;50.876;7.012;2023-07-22T07:33:03;9.83;;;6.67;;
18580;SDS011;9420;50.876;7.012;2023-07-22T07:35:29;10.23;;;6.33;;
18580;SDS011;9420;50.876;7.012;2023-07-22T07:37:56;6.73;;;5.07;;
18580;SDS011;9420;50.876;7.012;2023-07-22T07:40:24;10.27;;;5.40;;
18580;SDS011;9420;50.876;7.012;2023-07-22T07:42:51;8.10;;;5.63;;
18580;SDS011;9420;50.876;7.012;2023-07-22T07:45:18;8.10;;;6.03;;
18580;SDS011;9420;50.876;7.012;2023-07-22T07:47:45;9.13;;;6.37;;
18580;SDS011;9420;50.876;7.012;2023-07-22T07:50:12;7.30;;;5.93;;
18580;SDS011;9420;50.876;7.012;2023-07-22T07:52:38;8.07;;;5.63;;
18580;SDS011;9420;50.876;7.012;2023-07-22T07:55:05;7.80;;;5.70;;
18580;SDS011;9420;50.876;7.012;2023-07-22T07:57:34;7.80;;;5.07;;
18580;SDS011;9420;50.876;7.012;2023-07-22T08:00:00;8.47;;;5.90;;
18580;SDS011;9420;50.876;7.012;2023-07-22T08:02:29;7.97;;;5.77;;
18580;SDS011;9420;50.876;7.012;2023-07-22T08:04:56;6.73;;;5.00;;
18580;SDS011;9420;50.876;7.012;2023-07-22T08:07:24;9.30;;;4.87;;
18580;SDS011;9420;50.876;7.012;2023-07-22T08:09:51;6.53;;;5.23;;
18580;SDS011;9420;50.876;7.012;2023-07-22T08:12:18;7.27;;;5.30;;
18580;SDS011;9420;50.876;7.012;2023-07-22T08:14:46;7.63;;;5.63;;
18580;SDS011;9420;50.876;7.012;2023-07-22T08:17:13;8.00;;;4.77;;
18580;SDS011;9420;50.876;7.012;2023-07-22T08:19:39;6.97;;;5.37;;
18580;SDS011;9420;50.876;7.012;2023-07-22T08:22:06;8.77;;;4.90;;
18580;SDS011;9420;50.876;7.012;2023-07-22T08:24:32;7.97;;;5.17;;
18580;SDS011;9420;50.876;7.012;2023-07-22T08:26:59;7.07;;;4.87;;
18580;SDS011;9420;50.876;7.012;2023-07-22T08:29:25;9.23;;;5.03;;
18580;SDS011;9420;50.876;7.012;2023-07-22T08:31:54;9.10;;;5.27;;
18580;SDS011;9420;50.876;7.012;2023-07-22T08:34:20;5.67;;;4.70;;
18580;SDS011;9420;50.876;7.012;2023-07-22T08:36:47;7.03;;;4.23;;
18580;SDS011;9420;50.876;7.012;2023-07-22T08:39:14;6.50;;;4.20;;
18580;SDS011;9420;50.876;7.012;2023-07-22T08:41:42;8.60;;;5.07;;
18580;SDS011;9420;50.876;7.012;2023-07-22T08:44:17;7.53;;;5.13;;
18580;SDS011;9420;50.876;7.012;2023-07-22T08:46:46;6.73;;;5.03;;
18580;SDS011;9420;50.876;7.012;2023-07-22T08:49:17;5.57;;;4.80;;
18580;SDS011;9420;50.876;7.012;2023-07-22T08:51:44;8.53;;;6.27;;
18580;SDS011;9420;50.876;7.012;2023-07-22T08:54:12;8.70;;;5.47;;
18580;SDS011;9420;50.876;7.012;2023-07-22T08:56:39;9.47;;;5.07;;
18580;SDS011;9420;50.876;7.012;2023-07-22T08:59:08;10.73;;;6.17;;
18580;SDS011;9420;50.876;7.012;2023-07-22T09:01:39;8.40;;;6.07;;
18580;SDS011;9420;50.876;7.012;2023-07-22T09:04:07;6.70;;;4.07;;
18580;SDS011;9420;50.876;7.012;2023-07-22T09:06:36;5.77;;;3.80;;
18580;SDS011;9420;50.876;7.012;2023-07-22T09:12:11;5.73;;;4.37;;
18580;SDS011;9420;50.876;7.012;2023-07-22T09:14:38;7.53;;;3.60;;
18580;SDS011;9420;50.876;7.012;2023-07-22T09:17:06;5.77;;;3.90;;
18580;SDS011;9420;50.876;7.012;2023-07-22T09:19:33;3.57;;;3.27;;
18580;SDS011;9420;50.876;7.012;2023-07-22T09:22:00;4.20;;;3.40;;
18580;SDS011;9420;50.876;7.012;2023-07-22T09:24:27;4.57;;;3.43;;
18580;SDS011;9420;50.876;7.012;2023-07-22T09:26:54;4.70;;;3.53;;
18580;SDS011;9420;50.876;7.012;2023-07-22T09:29:32;4.97;;;3.70;;
18580;SDS011;9420;50.876;7.012;2023-07-22T09:31:59;4.70;;;3.10;;
18580;SDS011;9420;50.876;7.012;2023-07-22T09:34:26;8.33;;;4.40;;
18580;SDS011;9420;50.876;7.012;2023-07-22T09:36:54;4.13;;;3.23;;
18580;SDS011;9420;50.876;7.012;2023-07-22T09:39:23;4.73;;;3.87;;
18580;SDS011;9420;50.876;7.012;2023-07-22T09:41:50;3.90;;;2.87;;
18580;SDS011;9420;50.876;7.012;2023-07-22T09:44:18;7.03;;;3.23;;
18580;SDS011;9420;50.876;7.012;2023-07-22T09:46:46;3.83;;;2.67;;
18580;SDS011;9420;50.876;7.012;2023-07-22T09:49:14;4.67;;;3.07;;
18580;SDS011;9420;50.876;7.012;2023-07-22T09:51:43;7.50;;;3.73;;
18580;SDS011;9420;50.876;7.012;2023-07-22T09:54:10;6.93;;;3.23;;
18580;SDS011;9420;50.876;7.012;2023-07-22T09:56:44;5.20;;;3.37;;
18580;SDS011;9420;50.876;7.012;2023-07-22T09:59:15;4.17;;;3.60;;
18580;SDS011;9420;50.876;7.012;2023-07-22T10:01:48;5.40;;;3.60;;
18580;SDS011;9420;50.876;7.012;2023-07-22T10:04:18;5.63;;;3.67;;
18580;SDS011;9420;50.876;7.012;2023-07-22T10:06:50;4.97;;;3.63;;
18580;SDS011;9420;50.876;7.012;2023-07-22T10:09:17;5.50;;;3.40;;
18580;SDS011;9420;50.876;7.012;2023-07-22T10:11:49;6.87;;;3.27;;
18580;SDS011;9420;50.876;7.012;2023-07-22T10:14:16;4.13;;;3.50;;
18580;SDS011;9420;50.876;7.012;2023-07-22T10:16:44;4.87;;;2.67;;
18580;SDS011;9420;50.876;7.012;2023-07-22T10:19:12;3.57;;;2.70;;
18580;SDS011;9420;50.876;7.012;2023-07-22T10:21:40;4.40;;;2.80;;
18580;SDS011;9420;50.876;7.012;2023-07-22T10:24:06;3.57;;;2.83;;
18580;SDS011;9420;50.876;7.012;2023-07-22T10:26:34;4.10;;;2.90;;
18580;SDS011;9420;50.876;7.012;2023-07-22T10:29:02;3.30;;;2.87;;
18580;SDS011;9420;50.876;7.012;2023-07-22T10:31:30;3.60;;;2.63;;
18580;SDS011;9420;50.876;7.012;2023-07-22T10:33:57;3.13;;;2.20;;
18580;SDS011;9420;50.876;7.012;2023-07-22T10:36:24;5.23;;;2.90;;
18580;SDS011;9420;50.876;7.012;2023-07-22T10:42:02;4.03;;;2.70;;
18580;SDS011;9420;50.876;7.012;2023-07-22T10:44:31;3.80;;;2.30;;
18580;SDS011;9420;50.876;7.012;2023-07-22T10:46:59;2.80;;;2.40;;
18580;SDS011;9420;50.876;7.012;2023-07-22T10:49:28;4.55;;;2.50;;
18580;SDS011;9420;50.876;7.012;2023-07-22T10:52:10;3.35;;;2.65;;
18580;SDS011;9420;50.876;7.012;2023-07-22T10:54:38;3.10;;;2.33;;
18580;SDS011;9420;50.876;7.012;2023-07-22T10:57:22;3.10;;;2.50;;
18580;SDS011;9420;50.876;7.012;2023-07-22T10:59:51;2.58;;;2.33;;
18580;SDS011;9420;50.876;7.012;2023-07-22T11:02:25;4.95;;;3.53;;
18580;SDS011;9420;50.876;7.012;2023-07-22T11:04:52;2.97;;;2.40;;
18580;SDS011;9420;50.876;7.012;2023-07-22T11:07:29;3.42;;;2.85;;
18580;SDS011;9420;50.876;7.012;2023-07-22T11:09:57;3.05;;;2.10;;
18580;SDS011;9420;50.876;7.012;2023-07-22T11:12:24;4.88;;;2.60;;
18580;SDS011;9420;50.876;7.012;2023-07-22T11:14:53;3.75;;;2.13;;
18580;SDS011;9420;50.876;7.012;2023-07-22T11:17:30;2.97;;;2.45;;
18580;SDS011;9420;50.876;7.012;2023-07-22T11:19:59;2.70;;;2.15;;
18580;SDS011;9420;50.876;7.012;2023-07-22T11:22:27;2.55;;;2.00;;
18580;SDS011;9420;50.876;7.012;2023-07-22T11:24:54;2.72;;;2.20;;
18580;SDS011;9420;50.876;7.012;2023-07-22T11:27:23;2.13;;;1.92;;
18580;SDS011;9420;50.876;7.012;2023-07-22T11:29:50;4.22;;;2.22;;
18580;SDS011;9420;50.876;7.012;2023-07-22T11:32:18;3.72;;;2.13;;
18580;SDS011;9420;50.876;7.012;2023-07-22T11:34:47;3.22;;;2.38;;
18580;SDS011;9420;50.876;7.012;2023-07-22T11:37:16;3.22;;;2.55;;
18580;SDS011;9420;50.876;7.012;2023-07-22T11:39:44;2.25;;;2.05;;
18580;SDS011;9420;50.876;7.012;2023-07-22T11:42:11;2.08;;;1.55;;
18580;SDS011;9420;50.876;7.012;2023-07-22T11:44:38;2.58;;;2.38;;
18580;SDS011;9420;50.876;7.012;2023-07-22T11:47:05;3.45;;;2.22;;
18580;SDS011;9420;50.876;7.012;2023-07-22T11:49:35;3.45;;;1.90;;
18580;SDS011;9420;50.876;7.012;2023-07-22T11:52:03;2.83;;;1.98;;
18580;SDS011;9420;50.876;7.012;2023-07-22T11:54:32;2.03;;;1.70;;
18580;SDS011;9420;50.876;7.012;2023-07-22T11:57:09;3.60;;;2.17;;
18580;SDS011;9420;50.876;7.012;2023-07-22T11:59:39;2.03;;;1.80;;
18580;SDS011;9420;50.876;7.012;2023-07-22T12:02:12;4.28;;;1.40;;
18580;SDS011;9420;50.876;7.012;2023-07-22T12:04:41;2.80;;;1.95;;
18580;SDS011;9420;50.876;7.012;2023-07-22T12:07:20;2.38;;;1.90;;
18580;SDS011;9420;50.876;7.012;2023-07-22T12:09:48;2.85;;;2.33;;
18580;SDS011;9420;50.876;7.012;2023-07-22T12:12:15;4.82;;;2.40;;
18580;SDS011;9420;50.876;7.012;2023-07-22T12:14:41;3.63;;;2.35;;
18580;SDS011;9420;50.876;7.012;2023-07-22T12:17:08;3.20;;;2.38;;
18580;SDS011;9420;50.876;7.012;2023-07-22T12:19:35;3.83;;;2.10;;
18580;SDS011;9420;50.876;7.012;2023-07-22T12:22:03;4.40;;;2.40;;
18580;SDS011;9420;50.876;7.012;2023-07-22T12:24:30;4.57;;;1.98;;
18580;SDS011;9420;50.876;7.012;2023-07-22T12:26:58;4.90;;;3.10;;
18580;SDS011;9420;50.876;7.012;2023-07-22T12:29:25;2.60;;;2.17;;
18580;SDS011;9420;50.876;7.012;2023-07-22T12:31:51;2.50;;;1.90;;
18580;SDS011;9420;50.876;7.012;2023-07-22T12:34:18;1.95;;;1.60;;
18580;SDS011;9420;50.876;7.012;2023-07-22T12:36:46;1.88;;;1.70;;
18580;SDS011;9420;50.876;7.012;2023-07-22T12:39:15;4.07;;;1.80;;
18580;SDS011;9420;50.876;7.012;2023-07-22T12:41:41;4.45;;;2.03;;
18580;SDS011;9420;50.876;7.012;2023-07-22T12:44:08;7.53;;;2.85;;
18580;SDS011;9420;50.876;7.012;2023-07-22T12:46:35;3.15;;;2.78;;
18580;SDS011;9420;50.876;7.012;2023-07-22T12:49:01;1.50;;;1.30;;
18580;SDS011;9420;50.876;7.012;2023-07-22T12:51:28;2.60;;;1.88;;
18580;SDS011;9420;50.876;7.012;2023-07-22T12:53:55;6.95;;;1.73;;
18580;SDS011;9420;50.876;7.012;2023-07-22T12:56:23;3.00;;;2.00;;
18580;SDS011;9420;50.876;7.012;2023-07-22T12:58:49;2.80;;;1.85;;
18580;SDS011;9420;50.876;7.012;2023-07-22T13:01:19;1.92;;;1.55;;
18580;SDS011;9420;50.876;7.012;2023-07-22T13:03:45;1.67;;;1.42;;
18580;SDS011;9420;50.876;7.012;2023-07-22T13:09:09;2.13;;;1.77;;
18580;SDS011;9420;50.876;7.012;2023-07-22T13:11:37;2.10;;;1.90;;
18580;SDS011;9420;50.876;7.012;2023-07-22T13:14:04;2.83;;;1.75;;
18580;SDS011;9420;50.876;7.012;2023-07-22T13:16:30;2.95;;;1.80;;
18580;SDS011;9420;50.876;7.012;2023-07-22T13:18:58;2.10;;;1.75;;
18580;SDS011;9420;50.876;7.012;2023-07-22T13:21:25;2.80;;;1.88;;
18580;SDS011;9420;50.876;7.012;2023-07-22T13:23:52;2.38;;;2.17;;
18580;SDS011;9420;50.876;7.012;2023-07-22T13:26:19;2.78;;;2.05;;
18580;SDS011;9420;50.876;7.012;2023-07-22T13:28:47;3.10;;;2.05;;
18580;SDS011;9420;50.876;7.012;2023-07-22T13:31:13;2.40;;;1.98;;
18580;SDS011;9420;50.876;7.012;2023-07-22T13:33:40;2.33;;;1.65;;
18580;SDS011;9420;50.876;7.012;2023-07-22T13:36:07;2.30;;;1.73;;
18580;SDS011;9420;50.876;7.012;2023-07-22T13:38:34;2.38;;;1.95;;
18580;SDS011;9420;50.876;7.012;2023-07-22T13:41:00;8.45;;;2.10;;
18580;SDS011;9420;50.876;7.012;2023-07-22T13:43:27;2.85;;;1.77;;
18580;SDS011;9420;50.876;7.012;2023-07-22T13:45:56;7.10;;;2.17;;
18580;SDS011;9420;50.876;7.012;2023-07-22T13:48:22;2.55;;;2.10;;
18580;SDS011;9420;50.876;7.012;2023-07-22T13:50:49;3.60;;;2.28;;
18580;SDS011;9420;50.876;7.012;2023-07-22T13:53:16;2.40;;;1.92;;
18580;SDS011;9420;50.876;7.012;2023-07-22T13:55:42;3.17;;;2.50;;
18580;SDS011;9420;50.876;7.012;2023-07-22T13:58:09;3.63;;;2.33;;
18580;SDS011;9420;50.876;7.012;2023-07-22T14:00:36;3.30;;;2.35;;
18580;SDS011;9420;50.876;7.012;2023-07-22T14:03:04;2.47;;;2.28;;
18580;SDS011;9420;50.876;7.012;2023-07-22T14:05:30;2.38;;;1.92;;
18580;SDS011;9420;50.876;7.012;2023-07-22T14:07:57;6.05;;;3.10;;
18580;SDS011;9420;50.876;7.012;2023-07-22T14:10:23;3.35;;;2.50;;
18580;SDS011;9420;50.876;7.012;2023-07-22T14:12:52;20.80;;;2.70;;
18580;SDS011;9420;50.876;7.012;2023-07-22T14:15:19;2.15;;;1.95;;
18580;SDS011;9420;50.876;7.012;2023-07-22T14:17:46;2.15;;;1.95;;
18580;SDS011;9420;50.876;7.012;2023-07-22T14:20:14;2.85;;;2.30;;
18580;SDS011;9420;50.876;7.012;2023-07-22T14:22:41;3.28;;;2.25;;
18580;SDS011;9420;50.876;7.012;2023-07-22T14:25:08;3.38;;;2.88;;
18580;SDS011;9420;50.876;7.012;2023-07-22T14:27:37;4.03;;;2.67;;
18580;SDS011;9420;50.876;7.012;2023-07-22T14:30:04;3.55;;;2.38;;
18580;SDS011;9420;50.876;7.012;2023-07-22T14:32:32;4.07;;;2.97;;
18580;SDS011;9420;50.876;7.012;2023-07-22T14:34:58;3.78;;;2.97;;
18580;SDS011;9420;50.876;7.012;2023-07-22T14:37:29;2.97;;;2.38;;
18580;SDS011;9420;50.876;7.012;2023-07-22T14:39:55;2.72;;;2.50;;
18580;SDS011;9420;50.876;7.012;2023-07-22T14:42:22;3.28;;;2.40;;
18580;SDS011;9420;50.876;7.012;2023-07-22T14:44:49;2.88;;;2.17;;
18580;SDS011;9420;50.876;7.012;2023-07-22T14:47:16;3.22;;;2.70;;
18580;SDS011;9420;50.876;7.012;2023-07-22T14:49:42;3.15;;;2.40;;
18580;SDS011;9420;50.876;7.012;2023-07-22T14:52:09;3.03;;;2.50;;
18580;SDS011;9420;50.876;7.012;2023-07-22T14:54:37;5.57;;;3.53;;
18580;SDS011;9420;50.876;7.012;2023-07-22T14:57:04;4.55;;;2.55;;
18580;SDS011;9420;50.876;7.012;2023-07-22T14:59:31;3.63;;;2.58;;
18580;SDS011;9420;50.876;7.012;2023-07-22T15:01:57;2.88;;;2.58;;
18580;SDS011;9420;50.876;7.012;2023-07-22T15:04:24;3.13;;;2.60;;
18580;SDS011;9420;50.876;7.012;2023-07-22T15:06:51;5.35;;;3.20;;
18580;SDS011;9420;50.876;7.012;2023-07-22T15:09:18;3.20;;;2.65;;